Flight Track Log - Related Links

Times and Time Zones

All times are in EDT time to prevent confusion due to time zone crossing. See the N1250V flight status page for this flight to view local times or setup timezone preferences in your user account.

Time Position Orientation Groundspeed Altitude Reporting Facility
EDT Latitude Longitude Course Direction KTS MPH feet Rate Location/Type
Thu 08:40:04 AM 39.0833 -84.4167 159° South 143 165 1,100  Level Cincinnati TRACON
Thu 08:40:58 AM 39.0500 -84.4000 159° South 198 228 3,000 2,158 Climbing Cincinnati TRACON
Thu 08:41:58 AM 39.0667 -84.3333 72° East 201 231 5,200 2,059 Climbing Cincinnati TRACON
Thu 08:42:40 AM 39.0728 -84.2986 77° East 211 243 6,500 1,904 Climbing Indianapolis Center
Thu 08:43:42 AM 39.0986 -84.2303 64° Northeast 210 242 8,500 1,984 Climbing Indianapolis Center
Thu 08:44:44 AM 39.1222 -84.1606 66° East 210 242 10,600 1,872 Climbing Indianapolis Center
Thu 08:45:47 AM 39.1536 -84.0758 64° Northeast 216 249 12,400 1,488 Climbing Indianapolis Center
Thu 08:46:49 AM 39.1825 -83.9931 66° East 243 280 13,700 1,403 Climbing Indianapolis Center
Thu 08:47:51 AM 39.2142 -83.9058 65° Northeast 261 300 15,300 1,548 Climbing Indianapolis Center
Thu 08:48:53 AM 39.2469 -83.8206 64° Northeast 264 304 16,900 1,452 Climbing Indianapolis Center
Thu 08:49:55 AM 39.2789 -83.7353 64° Northeast 264 304 18,300 1,306 Climbing Indianapolis Center
Thu 08:50:57 AM 39.3119 -83.6481 64° Northeast 268 308 19,600 1,403 Climbing Indianapolis Center
Thu 08:51:59 AM 39.3533 -83.5422 63° Northeast 272 313 21,200 1,403 Climbing Indianapolis Center
Thu 08:53:01 AM 39.3858 -83.4547 64° Northeast 273 314 22,500 871 Climbing Indianapolis Center
Thu 08:54:03 AM 39.4192 -83.3656 64° Northeast 274 315 23,000 242 Climbing Indianapolis Center
Thu 08:55:05 AM 39.4558 -83.2644 65° Northeast 301 346 23,000  Level Indianapolis Center
Thu 08:56:07 AM 39.4969 -83.1561 64° Northeast 327 376 23,000 581 Level Indianapolis Center
Thu 08:57:09 AM 39.5467 -83.0264 64° Northeast 336 387 24,200 1,065 Climbing Indianapolis Center
Thu 08:58:11 AM 39.5858 -82.9247 63° Northeast 326 375 25,200 919 Climbing Indianapolis Center
Thu 08:59:13 AM 39.6092 -82.8178 74° East 332 382 26,100 1,065 Climbing Indianapolis Center
Thu 09:00:15 AM 39.6194 -82.7067 83° East 318 366 27,400 1,161 Climbing Indianapolis Center
Thu 09:01:17 AM 39.6278 -82.5992 84° East 308 354 28,500 1,113 Climbing Indianapolis Center
Thu 09:02:19 AM 39.6381 -82.4692 84° East 306 352 29,700 968 Climbing Indianapolis Center
Thu 09:03:21 AM 39.6467 -82.3633 84° East 303 349 30,500 774 Climbing Indianapolis Center
Thu 09:04:23 AM 39.6544 -82.2558 85° East 303 349 31,300 677 Climbing Indianapolis Center
Thu 09:05:25 AM 39.6625 -82.1475 84° East 303 349 31,900 532 Climbing Indianapolis Center
Thu 09:06:27 AM 39.6714 -82.0333 84° East 306 352 32,400 532 Climbing Indianapolis Center
Thu 09:07:29 AM 39.6786 -81.9192 85° East 312 359 33,000 290 Climbing Indianapolis Center
Thu 09:08:31 AM 39.6875 -81.8003 84° East 325 374 33,000  Level Indianapolis Center
Thu 09:09:33 AM 39.6986 -81.6481 85° East 346 398 33,000  Level Indianapolis Center
Thu 09:10:35 AM 39.7083 -81.5219 84° East 360 414 33,000  Level Indianapolis Center
Thu 09:11:37 AM 39.7564 -81.3972 63° Northeast 364 419 33,000  Level Indianapolis Center
Thu 09:12:15 AM 39.7850 -81.3236 63° Northeast 368 423 33,000  Level Cleveland Center
Thu 09:13:18 AM 39.8289 -81.2031 65° Northeast 368 423 33,000  Level Cleveland Center
Thu 09:14:20 AM 39.8725 -81.0803 65° Northeast 371 427 33,000  Level Cleveland Center
Thu 09:15:22 AM 39.9153 -80.9569 66° East 372 428 33,000  Level Cleveland Center
Thu 09:16:24 AM 39.9681 -80.8103 65° Northeast 373 429 33,000  Level Cleveland Center
Thu 09:17:26 AM 40.0108 -80.6878 65° Northeast 373 429 33,000  Level Cleveland Center
Thu 09:18:28 AM 40.0539 -80.5664 65° Northeast 373 429 33,000  Level Cleveland Center
Thu 09:19:30 AM 40.0956 -80.4453 66° East 369 425 33,000  Level Cleveland Center
Thu 09:20:32 AM 40.1378 -80.3247 65° Northeast 369 425 33,000  Level Cleveland Center
Thu 09:21:34 AM 40.1875 -80.1808 66° East 369 425 33,000  Level Cleveland Center
Thu 09:22:37 AM 40.2275 -80.0611 66° East 368 423 33,000  Level Cleveland Center
Thu 09:23:39 AM 40.2689 -79.9428 65° Northeast 366 421 33,000  Level Cleveland Center
Thu 09:24:41 AM 40.3097 -79.8236 66° East 365 420 33,000  Level Cleveland Center
Thu 09:25:43 AM 40.3586 -79.6800 66° East 364 419 33,000  Level Cleveland Center
Thu 09:26:45 AM 40.3994 -79.5600 66° East 364 419 33,000  Level Cleveland Center
Thu 09:27:47 AM 40.4403 -79.4383 66° East 364 419 33,000  Level Cleveland Center
Thu 09:28:49 AM 40.4811 -79.3183 66° East 365 420 33,000  Level Cleveland Center
Thu 09:29:51 AM 40.5242 -79.1892 66° East 364 419 33,000  Level Cleveland Center
Thu 09:30:53 AM 40.5639 -79.0694 66° East 364 419 33,000  Level Cleveland Center
Thu 09:31:56 AM 40.6119 -78.9247 66° East 364 419 33,000  Level Cleveland Center
Thu 09:32:58 AM 40.6517 -78.8042 66° East 364 419 33,000  Level Cleveland Center
Thu 09:34:00 AM 40.6911 -78.6836 67° East 364 419 33,000  Level Cleveland Center
Thu 09:35:02 AM 40.7306 -78.5631 67° East 364 419 33,000  Level Cleveland Center
Thu 09:36:04 AM 40.7694 -78.4439 67° East 364 419 33,000  Level Cleveland Center
Thu 09:37:06 AM 40.8169 -78.2989 67° East 364 419 33,000  Level Cleveland Center
Thu 09:38:08 AM 40.8556 -78.1756 67° East 365 420 33,000  Level Cleveland Center
Thu 09:39:10 AM 40.8958 -78.0533 66° East 365 420 33,000  Level Cleveland Center
Thu 09:40:12 AM 40.9403 -77.9350 64° Northeast 364 419 33,000  Level Cleveland Center
Thu 09:41:15 AM 41.0014 -77.7986 59° Northeast 364 419 33,000  Level Cleveland Center
Thu 09:42:17 AM 41.0358 -77.6747 70° East 364 419 33,000  Level Cleveland Center
Thu 09:43:19 AM 41.0528 -77.5394 81° East 375 432 33,000  Level Cleveland Center
Thu 09:44:21 AM 41.0689 -77.4069 81° East 371 427 33,000  Level Cleveland Center
Thu 09:45:02 AM 41.0811 -77.3061 81° East 367 422 33,000 -60 Level New York Center
Thu 09:46:01 AM 41.0967 -77.1728 81° East 367 422 32,900 -864 Descending New York Center
Thu 09:47:00 AM 41.1147 -77.0283 81° East 375 432 31,300 -1,462 Descending New York Center
Thu 09:48:00 AM 41.1456 -76.8797 75° East 397 457 30,000 -1,426 Descending New York Center
Thu 09:49:02 AM 41.1939 -76.7461 64° Northeast 397 457 28,400 -1,587 Descending New York Center
Thu 09:50:01 AM 41.2422 -76.6125 64° Northeast 402 463 26,800 -1,424 Descending New York Center
Thu 09:51:00 AM 41.2556 -76.4700 83° East 389 448 25,600 -1,438 Descending New York Center
Thu 09:52:02 AM 41.2581 -76.3267 89° East 389 448 23,900 -1,672 Descending New York Center
Thu 09:53:02 AM 41.2628 -76.1836 87° East 384 442 22,200 -1,714 Descending New York Center
Thu 09:54:01 AM 41.2644 -76.0483 89° East 378 435 20,500 -1,636 Descending New York Center
Thu 09:55:03 AM 41.2681 -75.9189 88° East 365 420 18,900 -1,250 Descending New York Center
Thu 09:56:01 AM 41.2692 -75.7975 89° East 346 398 18,000 -550 Descending New York Center
Thu 09:57:03 AM 41.2719 -75.6819 88° East 341 392 17,800 -1,109 Descending New York Center
Thu 09:58:00 AM 41.2292 -75.5572 114° Southeast 328 377 15,800 -2,034 Descending New York Center
Thu 09:59:01 AM 41.1919 -75.4500 115° Southeast 328 377 13,800 -2,100 Descending New York Center
Thu 10:00:00 AM 41.1586 -75.3428 112° Southeast 314 361 11,600 -2,100 Descending New York Center
Thu 10:01:01 AM 41.1286 -75.2528 114° Southeast 303 349 9,600 -1,967 Descending New York Center
Thu 10:02:02 AM 41.0947 -75.1542 114° Southeast 303 349 7,600 -1,750 Descending New York Center
Thu 10:03:01 AM 41.0611 -75.0528 114° Southeast 282 325 6,100 -750 Descending New York Center
Thu 10:04:02 AM 41.0289 -74.9600 115° Southeast 277 319 6,100 -50 Level New York Center
Thu 10:05:02 AM 40.9967 -74.8700 115° Southeast 272 313 6,000 -305 Descending New York Center
Thu 10:06:00 AM 40.9853 -74.7761 99° East 255 293 5,500 -694 Descending New York Center
Thu 10:07:03 AM 40.9906 -74.6856 86° East 255 293 4,600 -750 Descending New York Center
Thu 10:08:00 AM 41.0117 -74.6097 70° East 228 262 4,000 -403 Descending New York Center
Thu 10:09:02 AM 40.9736 -74.5636 138° Southeast 174 200 3,800 -443 Descending New York Center
Thu 10:10:02 AM 40.9150 -74.5769 190° South 170 196 3,100 -400 Descending New York Center
Thu 10:11:02 AM 40.8647 -74.5850 187° South 191 220 3,000 -51 Descending New York Center
Thu 10:12:00 AM 40.8181 -74.6097 202° Southwest 186 214 3,000  Level New York Center
Thu 10:13:01 AM 40.7775 -74.6378 208° Southwest 186 214 3,000 -246 Level New York Center
Thu 10:14:02 AM 40.7308 -74.6653 204° Southwest 180 207 2,500 -403 Descending New York Center
Thu 10:15:00 AM 40.6900 -74.6383 153° Southeast 160 184 2,200 -203 Descending New York Center
Thu 10:16:00 AM 40.6794 -74.5803 103° East 147 169 2,100 -129 Descending New York Center
Thu 10:18:06 AM 40.7333 -74.4833 54° Northeast 150 173 1,800 -258 Descending New York TRACON
Thu 10:19:06 AM 40.7500 -74.4500 57° Northeast 128 147 1,300 -550 Descending New York TRACON
Thu 10:20:06 AM 40.7833 -74.4333 21° North 120 138 700 -600 Descending New York TRACON
Thu 10:22:00 AM 40.7833 -74.4000 85° East  Level FlightAware Approximate

Login

Don't have an account? Register now (free) for customized features, flight alerts, and more!